createdAt,value
2023-02-01T00:01:22.867Z,97903.53
2023-02-01T00:03:51.659Z,97903.88
2023-02-01T00:06:18.216Z,97900.00
2023-02-01T00:08:49.294Z,97902.56
2023-02-01T00:11:15.869Z,97896.66
2023-02-01T00:13:42.923Z,97895.81
2023-02-01T00:16:15.548Z,97891.91
2023-02-01T00:18:44.297Z,97884.81
2023-02-01T00:21:16.929Z,97889.59
2023-02-01T00:23:45.841Z,97894.09
2023-02-01T00:26:20.818Z,97884.72
2023-02-01T00:28:47.415Z,97888.00
2023-02-01T00:31:14.344Z,97881.44
2023-02-01T00:33:40.975Z,97885.56
2023-02-01T00:36:08.847Z,97886.34
2023-02-01T00:38:40.013Z,97884.69
2023-02-01T00:41:15.590Z,97881.47
2023-02-01T00:43:42.930Z,97878.78
2023-02-01T00:46:10.377Z,97873.44
2023-02-01T00:48:41.504Z,97873.34
2023-02-01T00:51:14.543Z,97874.69
2023-02-01T00:53:41.214Z,97875.28
2023-02-01T00:56:12.799Z,97872.81
2023-02-01T00:58:45.233Z,97868.94
2023-02-01T01:01:23.895Z,97861.69
2023-02-01T01:03:58.491Z,97861.13
2023-02-01T01:06:30.311Z,97863.28
2023-02-01T01:09:01.178Z,97859.81
2023-02-01T01:11:30.638Z,97859.03
2023-02-01T01:14:00.745Z,97852.78
2023-02-01T01:16:31.608Z,97856.91
2023-02-01T01:19:00.759Z,97863.41
2023-02-01T01:21:36.567Z,97856.50
2023-02-01T01:24:05.948Z,97857.94
2023-02-01T01:26:34.886Z,97854.81
2023-02-01T01:29:01.461Z,97850.91
2023-02-01T01:31:28.305Z,97856.16
2023-02-01T01:33:57.505Z,97851.47
2023-02-01T01:36:28.044Z,97850.81
2023-02-01T01:38:56.942Z,97855.38
2023-02-01T01:41:30.118Z,97859.25
2023-02-01T01:43:59.516Z,97852.13
2023-02-01T01:46:27.975Z,97844.13
2023-02-01T01:49:12.476Z,97842.88
2023-02-01T01:51:45.444Z,97842.88
2023-02-01T01:54:23.579Z,97835.75
2023-02-01T01:56:56.562Z,97833.88
2023-02-01T01:59:24.926Z,97832.44
2023-02-01T02:01:52.483Z,97831.31
2023-02-01T02:04:22.189Z,97838.75
2023-02-01T02:06:57.997Z,97842.22
2023-02-01T02:09:26.817Z,97844.88
2023-02-01T02:11:56.069Z,97834.97
2023-02-01T02:14:30.792Z,97838.88
2023-02-01T02:17:19.664Z,97840.84
2023-02-01T02:20:01.556Z,97842.06
2023-02-01T02:23:08.723Z,97844.31
2023-02-01T02:25:48.630Z,97840.50
2023-02-01T02:28:52.554Z,97844.75
2023-02-01T02:31:45.300Z,97843.53
2023-02-01T02:34:40.814Z,97840.97
2023-02-01T02:37:41.371Z,97838.63
2023-02-01T02:40:29.360Z,97839.34
2023-02-01T02:43:25.695Z,97828.97
2023-02-01T02:46:17.724Z,97825.50
2023-02-01T02:49:16.230Z,97828.28
2023-02-01T02:52:09.247Z,97829.50
2023-02-01T02:54:53.055Z,97826.81
2023-02-01T02:57:44.246Z,97827.94
2023-02-01T03:00:34.534Z,97834.06
2023-02-01T03:03:22.629Z,97829.38
2023-02-01T03:05:53.075Z,97816.00
2023-02-01T03:08:27.793Z,97816.38
2023-02-01T03:11:03.499Z,97819.47
2023-02-01T03:14:01.066Z,97816.38
2023-02-01T03:16:47.415Z,97815.47
2023-02-01T03:19:36.287Z,97817.25
2023-02-01T03:22:17.761Z,97828.31
2023-02-01T03:25:03.318Z,97833.75
2023-02-01T03:27:35.940Z,97826.50
2023-02-01T03:30:21.799Z,97836.88
2023-02-01T03:33:01.804Z,97830.41
2023-02-01T03:35:44.393Z,97833.19
2023-02-01T03:38:22.135Z,97831.41
2023-02-01T03:40:56.556Z,97837.53
2023-02-01T03:43:28.892Z,97836.06
2023-02-01T03:46:02.180Z,97837.97
2023-02-01T03:48:32.638Z,97829.63
2023-02-01T03:51:04.533Z,97829.94
2023-02-01T03:53:37.773Z,97825.81
2023-02-01T03:56:04.784Z,97830.84
2023-02-01T03:58:31.497Z,97832.38
2023-02-01T04:01:05.460Z,97832.47
2023-02-01T04:03:35.088Z,97833.25
2023-02-01T04:06:01.630Z,97833.72
2023-02-01T04:08:28.392Z,97836.38
2023-02-01T04:10:55.028Z,97841.41
2023-02-01T04:13:30.715Z,97843.03
2023-02-01T04:15:57.243Z,97839.25
2023-02-01T04:18:25.867Z,97845.38
2023-02-01T04:20:52.392Z,97851.06
2023-02-01T04:23:18.962Z,97866.69
2023-02-01T04:25:45.636Z,97867.03
2023-02-01T04:28:14.690Z,97866.69
2023-02-01T04:30:43.875Z,97857.78
2023-02-01T04:33:15.212Z,97865.03
2023-02-01T04:35:41.920Z,97867.38
2023-02-01T04:38:13.220Z,97881.63
2023-02-01T04:40:42.249Z,97884.66
2023-02-01T04:43:09.123Z,97877.75
2023-02-01T04:45:40.170Z,97886.19
2023-02-01T04:48:14.039Z,97886.19
2023-02-01T04:50:42.857Z,97887.66
2023-02-01T04:53:11.742Z,97897.66
2023-02-01T04:55:43.124Z,97896.88
2023-02-01T04:58:12.370Z,97904.91
2023-02-01T05:00:39.135Z,97901.13
2023-02-01T05:03:08.085Z,97908.72
2023-02-01T05:05:34.653Z,97900.25
2023-02-01T05:08:01.231Z,97911.03
2023-02-01T05:10:27.881Z,97897.44
2023-02-01T05:13:13.129Z,97891.66
2023-02-01T05:15:42.432Z,97897.78
2023-02-01T05:18:09.178Z,97892.97
2023-02-01T05:20:35.756Z,97884.56
2023-02-01T05:23:02.306Z,97881.88
2023-02-01T05:25:31.882Z,97881.44
2023-02-01T05:27:58.423Z,97879.09
2023-02-01T05:30:27.173Z,97869.25
2023-02-01T05:32:58.723Z,97878.53
2023-02-01T05:35:27.582Z,97874.63
2023-02-01T05:37:56.904Z,97864.03
2023-02-01T05:40:28.253Z,97869.78
2023-02-01T05:42:57.043Z,97868.78
2023-02-01T05:45:26.390Z,97869.91
2023-02-01T05:47:52.922Z,97872.84
2023-02-01T05:50:22.211Z,97875.84
2023-02-01T05:52:48.911Z,97864.53
2023-02-01T05:55:15.561Z,97876.38
2023-02-01T05:57:42.182Z,97877.25
2023-02-01T06:00:12.112Z,97877.75
2023-02-01T06:02:38.731Z,97882.16
2023-02-01T06:05:08.436Z,97880.19
2023-02-01T06:07:37.312Z,97878.84
2023-02-01T06:10:04.312Z,97880.19
2023-02-01T06:12:33.150Z,97881.47
2023-02-01T06:15:04.426Z,97885.06
2023-02-01T06:17:35.845Z,97882.63
2023-02-01T06:20:02.414Z,97894.44
2023-02-01T06:22:31.026Z,97902.69
2023-02-01T06:24:59.216Z,97896.22
2023-02-01T06:27:29.204Z,97902.69
2023-02-01T06:29:56.270Z,97899.56
2023-02-01T06:32:23.991Z,97903.03
2023-02-01T06:34:50.725Z,97902.34
2023-02-01T06:37:17.344Z,97914.16
2023-02-01T06:39:43.888Z,97915.28
2023-02-01T06:42:10.602Z,97923.31
2023-02-01T06:44:37.183Z,97920.63
2023-02-01T06:47:09.255Z,97925.66
2023-02-01T06:49:41.416Z,97927.47
2023-02-01T06:52:08.006Z,97929.91
2023-02-01T06:54:38.439Z,97933.22
2023-02-01T06:57:07.267Z,97949.41
2023-02-01T06:59:33.820Z,97944.06
2023-02-01T07:02:00.394Z,97947.06
2023-02-01T07:04:27.029Z,97953.31
2023-02-01T07:06:53.578Z,97950.50
2023-02-01T07:09:22.850Z,97967.34
2023-02-01T07:11:49.419Z,97973.69
2023-02-01T07:14:15.959Z,97972.16
2023-02-01T07:16:42.454Z,97981.63
2023-02-01T07:19:09.107Z,97980.41
2023-02-01T07:21:35.653Z,97986.97
2023-02-01T07:24:05.000Z,97985.19
2023-02-01T07:26:33.768Z,97984.41
2023-02-01T07:29:00.905Z,97996.31
2023-02-01T07:31:29.953Z,98005.03
2023-02-01T07:33:59.312Z,98007.28
2023-02-01T07:36:28.431Z,98005.13
2023-02-01T07:38:56.905Z,98009.72
2023-02-01T07:41:25.823Z,97995.09
2023-02-01T07:43:58.884Z,97989.75
2023-02-01T07:46:30.439Z,97988.31
2023-02-01T07:48:59.419Z,97984.06
2023-02-01T07:51:28.473Z,98000.81
2023-02-01T07:53:56.420Z,98005.91
2023-02-01T07:56:26.237Z,98008.94
2023-02-01T07:58:57.156Z,97994.44
2023-02-01T08:01:28.608Z,97986.31
2023-02-01T08:04:01.944Z,97992.53
2023-02-01T08:06:33.316Z,97996.78
2023-02-01T08:09:02.980Z,97994.44
2023-02-01T08:11:32.626Z,98006.50
2023-02-01T08:14:01.927Z,98008.72
2023-02-01T08:16:28.601Z,98012.50
2023-02-01T08:18:55.477Z,98009.06
2023-02-01T08:21:26.765Z,98006.38
2023-02-01T08:23:53.971Z,98011.47
2023-02-01T08:26:23.581Z,98012.19
2023-02-01T08:28:58.367Z,97999.25
2023-02-01T08:31:29.781Z,97997.69
2023-02-01T08:34:01.767Z,97999.34
2023-02-01T08:36:32.143Z,97997.78
2023-02-01T08:38:58.716Z,98003.56
2023-02-01T08:41:28.098Z,98004.25
2023-02-01T08:43:56.893Z,98003.13
2023-02-01T08:46:24.849Z,97996.44
2023-02-01T08:48:52.212Z,97988.63
2023-02-01T08:51:20.898Z,97994.19
2023-02-01T08:53:50.315Z,98007.56
2023-02-01T08:56:18.959Z,98008.03
2023-02-01T08:58:48.140Z,98000.00
2023-02-01T09:01:17.803Z,97989.28
2023-02-01T09:03:44.673Z,97994.63
2023-02-01T09:06:14.005Z,97994.41
2023-02-01T09:08:43.278Z,97993.16
2023-02-01T09:11:16.589Z,97986.69
2023-02-01T09:13:43.797Z,97991.91
2023-02-01T09:16:13.576Z,97993.16
2023-02-01T09:18:55.353Z,97990.47
2023-02-01T09:21:28.020Z,97997.34
2023-02-01T09:23:54.839Z,98004.38
2023-02-01T09:26:26.481Z,98013.53
2023-02-01T09:28:57.850Z,98009.75
2023-02-01T09:31:27.663Z,98001.81
2023-02-01T09:33:54.333Z,98022.47
2023-02-01T09:36:21.010Z,98027.69
2023-02-01T09:38:52.747Z,98033.16
2023-02-01T09:41:22.758Z,98024.88
2023-02-01T09:44:19.799Z,98028.47
2023-02-01T09:46:47.014Z,98015.72
2023-02-01T09:49:23.266Z,98020.50
2023-02-01T09:51:53.244Z,98018.19
2023-02-01T09:54:23.915Z,98021.69
2023-02-01T09:57:12.018Z,98014.25
2023-02-01T09:59:53.216Z,98002.84
2023-02-01T10:02:28.474Z,98007.34
2023-02-01T10:04:59.971Z,98001.03
2023-02-01T10:07:29.335Z,97997.81
2023-02-01T10:10:31.235Z,97993.06
2023-02-01T10:13:00.428Z,97988.47
2023-02-01T10:15:54.148Z,97997.47
2023-02-01T10:18:59.992Z,97997.72
2023-02-01T10:21:53.202Z,98000.44
2023-02-01T10:24:31.208Z,97992.91
2023-02-01T10:27:11.203Z,97984.84
2023-02-01T10:29:44.635Z,97986.31
2023-02-01T10:32:22.247Z,97992.81
2023-02-01T10:35:03.723Z,97990.81
2023-02-01T10:37:34.955Z,97989.63
2023-02-01T10:40:14.269Z,97983.22
2023-02-01T10:42:41.386Z,97985.38
2023-02-01T10:45:13.410Z,97985.06
2023-02-01T10:47:40.158Z,97985.84
2023-02-01T10:50:16.759Z,97988.41
2023-02-01T10:53:00.956Z,97979.44
2023-02-01T10:55:41.485Z,97969.94
2023-02-01T10:58:21.528Z,97976.38
2023-02-01T11:01:06.369Z,97974.72
2023-02-01T11:03:35.970Z,97969.41
2023-02-01T11:06:25.139Z,97968.28
2023-02-01T11:08:54.576Z,97964.22
2023-02-01T11:11:22.444Z,97954.63
2023-02-01T11:14:02.526Z,97949.94
2023-02-01T11:16:38.002Z,97940.38
2023-02-01T11:19:07.188Z,97940.84
2023-02-01T11:21:38.976Z,97925.72
2023-02-01T11:24:10.206Z,97928.63
2023-02-01T11:26:45.537Z,97920.81
2023-02-01T11:29:18.641Z,97918.25
2023-02-01T11:31:46.820Z,97915.09
2023-02-01T11:34:23.525Z,97913.63
2023-02-01T11:36:50.870Z,97914.88
2023-02-01T11:39:31.087Z,97916.34
2023-02-01T11:42:06.598Z,97910.59
2023-02-01T11:44:37.696Z,97911.75
2023-02-01T11:47:34.471Z,97909.25
2023-02-01T11:50:15.493Z,97909.00
2023-02-01T11:53:20.438Z,97907.16
2023-02-01T11:55:55.747Z,97908.63
2023-02-01T11:58:25.323Z,97904.78
2023-02-01T12:01:03.859Z,97898.94
2023-02-01T12:03:45.305Z,97888.41
2023-02-01T12:06:30.943Z,97887.34
2023-02-01T12:09:03.537Z,97883.38
2023-02-01T12:11:54.182Z,97867.44
2023-02-01T12:14:29.120Z,97856.66
2023-02-01T12:16:58.637Z,97876.56
2023-02-01T12:19:36.639Z,97865.28
2023-02-01T12:22:24.027Z,97856.28
2023-02-01T12:25:25.305Z,97856.66
2023-02-01T12:28:10.175Z,97858.69
2023-02-01T12:30:44.735Z,97854.81
2023-02-01T12:33:23.468Z,97858.41
2023-02-01T12:36:13.837Z,97856.50
2023-02-01T12:38:48.114Z,97851.81
2023-02-01T12:41:21.905Z,97861.44
2023-02-01T12:44:26.119Z,97851.44
2023-02-01T12:47:22.878Z,97848.22
2023-02-01T12:49:49.410Z,97837.22
2023-02-01T12:52:36.322Z,97833.63
2023-02-01T12:55:37.435Z,97830.63
2023-02-01T12:58:22.472Z,97836.44
2023-02-01T13:01:01.735Z,97831.03
2023-02-01T13:03:45.451Z,97824.44
2023-02-01T13:06:23.071Z,97828.72
2023-02-01T13:09:01.009Z,97831.69
2023-02-01T13:11:35.160Z,97835.88
2023-02-01T13:14:20.385Z,97829.72
2023-02-01T13:16:56.264Z,97831.25
2023-02-01T13:19:30.534Z,97837.78
2023-02-01T13:22:12.907Z,97830.91
2023-02-01T13:24:54.504Z,97826.72
2023-02-01T13:27:23.647Z,97823.97
2023-02-01T13:30:00.121Z,97826.28
2023-02-01T13:33:50.249Z,97807.38
2023-02-01T13:35:57.832Z,97810.78
2023-02-01T13:38:43.013Z,97813.53
2023-02-01T13:41:29.685Z,97809.84
2023-02-01T13:44:38.432Z,97796.00
2023-02-01T13:47:17.971Z,97791.34
2023-02-01T13:49:44.624Z,97802.78
2023-02-01T13:52:28.690Z,97798.53
2023-02-01T13:55:17.125Z,97807.69
2023-02-01T13:57:45.999Z,97809.59
2023-02-01T14:00:37.865Z,97814.97
2023-02-01T14:03:07.531Z,97823.41
2023-02-01T14:05:36.785Z,97809.59
2023-02-01T14:08:13.889Z,97807.75
2023-02-01T14:10:51.789Z,97817.75
2023-02-01T14:13:37.359Z,97836.16
2023-02-01T14:16:03.972Z,97837.22
2023-02-01T14:18:42.023Z,97844.84
2023-02-01T14:21:24.655Z,97840.13
2023-02-01T14:23:56.289Z,97833.97
2023-02-01T14:26:36.038Z,97835.47
2023-02-01T14:29:21.265Z,97843.09
2023-02-01T14:32:00.724Z,97837.28
2023-02-01T14:34:44.103Z,97835.72
2023-02-01T14:37:18.675Z,97850.31
2023-02-01T14:39:54.568Z,97856.75
2023-02-01T14:42:39.072Z,97863.59
2023-02-01T14:45:20.662Z,97869.34
2023-02-01T14:47:48.859Z,97874.66
2023-02-01T14:50:22.478Z,97883.06
2023-02-01T14:53:10.914Z,97884.19
2023-02-01T14:55:43.371Z,97882.63
2023-02-01T14:58:40.617Z,97885.25
2023-02-01T15:01:24.797Z,97886.75
2023-02-01T15:04:08.254Z,97886.34
2023-02-01T15:06:37.981Z,97899.72
2023-02-01T15:09:15.686Z,97890.06
2023-02-01T15:11:58.791Z,97898.81
2023-02-01T15:14:26.904Z,97902.66
2023-02-01T15:16:56.488Z,97891.13
2023-02-01T15:19:27.835Z,97899.19
2023-02-01T15:21:56.431Z,97893.09
2023-02-01T15:24:25.060Z,97894.22
2023-02-01T15:26:53.528Z,97897.34
2023-02-01T15:29:22.111Z,97896.19
2023-02-01T15:31:53.310Z,97890.75
2023-02-01T15:34:21.113Z,97896.06
2023-02-01T15:37:02.389Z,97899.53
2023-02-01T15:39:33.562Z,97894.16
2023-02-01T15:42:16.599Z,97895.66
2023-02-01T15:44:47.170Z,97908.69
2023-02-01T15:47:27.157Z,97904.50
2023-02-01T15:49:56.649Z,97909.41
2023-02-01T15:52:43.104Z,97907.84
2023-02-01T15:55:23.985Z,97917.81
2023-02-01T15:57:52.665Z,97918.94
2023-02-01T16:00:28.769Z,97922.72
2023-02-01T16:03:00.639Z,97922.72
2023-02-01T16:05:39.326Z,97926.94
2023-02-01T16:08:13.465Z,97927.72
2023-02-01T16:10:44.940Z,97927.31
2023-02-01T16:13:12.226Z,97921.53
2023-02-01T16:15:39.289Z,97920.31
2023-02-01T16:18:08.863Z,97927.59
2023-02-01T16:20:36.893Z,97924.50
2023-02-01T16:23:04.961Z,97936.38
2023-02-01T16:25:34.608Z,97935.25
2023-02-01T16:28:03.336Z,97926.34
2023-02-01T16:30:32.950Z,97928.25
2023-02-01T16:33:01.194Z,97927.06
2023-02-01T16:35:36.705Z,97926.63
2023-02-01T16:38:09.718Z,97924.72
2023-02-01T16:40:41.400Z,97933.56
2023-02-01T16:43:25.079Z,97933.56
2023-02-01T16:45:59.838Z,97930.78
2023-02-01T16:48:29.392Z,97932.44
2023-02-01T16:50:58.754Z,97934.00
2023-02-01T16:53:29.189Z,97935.13
2023-02-01T16:55:58.222Z,97939.38
2023-02-01T16:58:27.042Z,97940.56
2023-02-01T17:00:54.416Z,97947.50
2023-02-01T17:03:24.200Z,97949.34
2023-02-01T17:05:56.992Z,97952.09
2023-02-01T17:08:35.110Z,97953.22
2023-02-01T17:11:03.119Z,97953.59
2023-02-01T17:13:29.869Z,97952.38
2023-02-01T17:16:02.157Z,97956.28
2023-02-01T17:18:34.064Z,97956.28
2023-02-01T17:21:04.856Z,97965.03
2023-02-01T17:23:35.129Z,97962.78
2023-02-01T17:26:03.940Z,97965.81
2023-02-01T17:28:30.604Z,97969.63
2023-02-01T17:30:57.605Z,97966.16
2023-02-01T17:33:27.312Z,97969.28
2023-02-01T17:35:55.535Z,97958.63
2023-02-01T17:38:22.549Z,97969.72
2023-02-01T17:40:49.107Z,97972.41
2023-02-01T17:43:24.041Z,97970.06
2023-02-01T17:46:04.071Z,97968.94
2023-02-01T17:48:33.106Z,97977.00
2023-02-01T17:51:01.102Z,97982.03
2023-02-01T17:53:30.901Z,97981.94
2023-02-01T17:56:00.267Z,97986.19
2023-02-01T17:58:26.849Z,97978.91
2023-02-01T18:00:54.418Z,97986.13
2023-02-01T18:03:23.758Z,97974.59
2023-02-01T18:05:53.634Z,97986.19
2023-02-01T18:08:33.250Z,97990.09
2023-02-01T18:11:03.821Z,97982.31
2023-02-01T18:13:32.172Z,97981.59
2023-02-01T18:15:59.998Z,97981.16
2023-02-01T18:18:33.780Z,97983.00
2023-02-01T18:21:00.618Z,97983.78
2023-02-01T18:23:27.166Z,97982.66
2023-02-01T18:25:56.704Z,97994.19
2023-02-01T18:28:23.235Z,97985.34
2023-02-01T18:30:51.665Z,97981.81
2023-02-01T18:33:21.031Z,97979.81
2023-02-01T18:35:47.993Z,97981.03
2023-02-01T18:38:15.233Z,97982.94
2023-02-01T18:40:53.703Z,97977.13
2023-02-01T18:43:21.355Z,97983.28
2023-02-01T18:45:50.798Z,97985.97
2023-02-01T18:48:22.354Z,97994.03
2023-02-01T18:50:52.066Z,97989.03
2023-02-01T18:53:21.077Z,97979.81
2023-02-01T18:55:48.704Z,97982.53
2023-02-01T18:58:20.021Z,97980.97
2023-02-01T19:00:47.407Z,97988.25
2023-02-01T19:03:15.773Z,97984.00
2023-02-01T19:05:46.013Z,97974.38
2023-02-01T19:08:15.645Z,97980.13
2023-02-01T19:10:42.951Z,97983.16
2023-02-01T19:13:13.532Z,97978.13
2023-02-01T19:15:41.227Z,97976.22
2023-02-01T19:18:11.685Z,97983.56
2023-02-01T19:20:45.569Z,97988.19
2023-02-01T19:23:13.764Z,97989.66
2023-02-01T19:25:47.094Z,97994.31
2023-02-01T19:28:14.814Z,97997.78
2023-02-01T19:30:41.521Z,97995.03
2023-02-01T19:33:12.918Z,97988.88
2023-02-01T19:35:42.231Z,97991.56
2023-02-01T19:38:11.390Z,97992.69
2023-02-01T19:40:38.429Z,97993.06
2023-02-01T19:43:05.032Z,97986.53
2023-02-01T19:45:35.832Z,97995.75
2023-02-01T19:48:07.504Z,98003.38
2023-02-01T19:50:36.445Z,97998.00
2023-02-01T19:53:03.039Z,97996.09
2023-02-01T19:55:32.174Z,97996.88
2023-02-01T19:58:02.458Z,97999.56
2023-02-01T20:00:28.267Z,97983.78
2023-02-01T20:02:54.943Z,97989.94
2023-02-01T20:05:23.438Z,97998.34
2023-02-01T20:07:52.411Z,97999.91
2023-02-01T20:10:19.176Z,98007.19
2023-02-01T20:12:51.184Z,98003.72
2023-02-01T20:15:22.160Z,98010.22
2023-02-01T20:17:48.916Z,98004.09
2023-02-01T20:20:16.487Z,98010.22
2023-02-01T20:22:45.312Z,98010.59
2023-02-01T20:25:12.510Z,98017.53
2023-02-01T20:27:39.922Z,98019.06
2023-02-01T20:30:08.523Z,98023.66
2023-02-01T20:32:37.263Z,98026.72
2023-02-01T20:35:06.886Z,98021.69
2023-02-01T20:37:36.940Z,98033.22
2023-02-01T20:40:08.546Z,98029.75
2023-02-01T20:42:37.904Z,98042.75
2023-02-01T20:45:05.315Z,98027.75
2023-02-01T20:47:36.744Z,98028.88
2023-02-01T20:50:06.176Z,98037.72
2023-02-01T20:52:34.953Z,98030.44
2023-02-01T20:55:01.603Z,98018.47
2023-02-01T20:57:33.042Z,98030.34
2023-02-01T20:59:59.619Z,98029.94
2023-02-01T21:02:26.463Z,98031.84
2023-02-01T21:04:55.228Z,98028.03
2023-02-01T21:07:24.360Z,98021.88
2023-02-01T21:09:50.977Z,98030.31
2023-02-01T21:12:17.613Z,98026.06
2023-02-01T21:14:46.571Z,98040.25
2023-02-01T21:17:13.249Z,98034.88
2023-02-01T21:19:45.824Z,98037.13
2023-02-01T21:22:13.914Z,98031.34
2023-02-01T21:24:41.308Z,98034.03
2023-02-01T21:27:13.411Z,98028.31
2023-02-01T21:29:39.901Z,98024.06
2023-02-01T21:32:09.966Z,98019.03
2023-02-01T21:34:41.047Z,98024.84
2023-02-01T21:37:08.343Z,98010.63
2023-02-01T21:39:34.968Z,98021.03
2023-02-01T21:42:21.953Z,98014.09
2023-02-01T21:44:48.603Z,98020.16
2023-02-01T21:47:21.315Z,98023.22
2023-02-01T21:49:56.277Z,98025.13
2023-02-01T21:52:23.574Z,98021.22
2023-02-01T21:54:56.886Z,98025.03
2023-02-01T21:57:23.407Z,98017.75
2023-02-01T21:59:52.048Z,98026.59
2023-02-01T22:02:18.962Z,98025.03
2023-02-01T22:04:50.383Z,98016.28
2023-02-01T22:07:19.563Z,98017.75
2023-02-01T22:09:46.229Z,98012.38
2023-02-01T22:12:14.288Z,98019.75
2023-02-01T22:14:44.600Z,98010.91
2023-02-01T22:17:14.062Z,98020.09
2023-02-01T22:19:43.496Z,98021.66
2023-02-01T22:22:12.394Z,98029.34
2023-02-01T22:24:41.234Z,98031.19
2023-02-01T22:27:13.528Z,98031.09
2023-02-01T22:29:42.044Z,98027.97
2023-02-01T22:32:08.894Z,98038.31
2023-02-01T22:34:39.975Z,98032.16
2023-02-01T22:37:10.205Z,98041.78
2023-02-01T22:39:37.731Z,98045.16
2023-02-01T22:42:07.101Z,98044.03
2023-02-01T22:44:33.626Z,98044.03
2023-02-01T22:47:00.168Z,98049.41
2023-02-01T22:49:29.255Z,98046.72
2023-02-01T22:51:58.281Z,98045.59
2023-02-01T22:54:24.823Z,98044.88
2023-02-01T22:56:51.387Z,98053.31
2023-02-01T22:59:20.220Z,98051.31
2023-02-01T23:01:46.894Z,98056.69
2023-02-01T23:04:17.241Z,98053.66
2023-02-01T23:06:46.287Z,98053.22
2023-02-01T23:09:25.267Z,98062.81
2023-02-01T23:11:55.181Z,98058.59
2023-02-01T23:14:24.728Z,98059.38
2023-02-01T23:16:53.793Z,98056.69
2023-02-01T23:19:22.722Z,98048.63
2023-02-01T23:21:49.701Z,98053.66
2023-02-01T23:24:18.634Z,98056.69
2023-02-01T23:26:47.552Z,98056.69
2023-02-01T23:29:18.660Z,98052.00
2023-02-01T23:31:45.308Z,98048.97
2023-02-01T23:34:14.119Z,98043.16
2023-02-01T23:36:40.721Z,98050.38
2023-02-01T23:39:07.354Z,98051.56
2023-02-01T23:41:36.161Z,98043.84
2023-02-01T23:44:02.876Z,98044.28
2023-02-01T23:46:33.448Z,98039.63
2023-02-01T23:49:01.139Z,98039.97
2023-02-01T23:51:28.622Z,98047.94
2023-02-01T23:53:55.826Z,98054.34
2023-02-01T23:56:28.449Z,98049.25
2023-02-01T23:58:56.726Z,98040.41
